sensor_id;sensor_type;location;lat;lon;timestamp;P1;durP1;ratioP1;P2;durP2;ratioP2
68212;SDS011;55035;47.792;8.724;2023-12-29T00:02:08;25.17;;;22.65;;
68212;SDS011;55035;47.792;8.724;2023-12-29T00:04:35;24.45;;;21.95;;
68212;SDS011;55035;47.792;8.724;2023-12-29T00:07:01;25.85;;;23.35;;
68212;SDS011;55035;47.792;8.724;2023-12-29T00:09:29;25.55;;;22.95;;
68212;SDS011;55035;47.792;8.724;2023-12-29T00:12:03;25.25;;;22.75;;
68212;SDS011;55035;47.792;8.724;2023-12-29T00:14:30;26.17;;;23.50;;
68212;SDS011;55035;47.792;8.724;2023-12-29T00:16:57;24.08;;;21.67;;
68212;SDS011;55035;47.792;8.724;2023-12-29T00:19:23;24.25;;;21.70;;
68212;SDS011;55035;47.792;8.724;2023-12-29T00:21:50;22.90;;;20.60;;
68212;SDS011;55035;47.792;8.724;2023-12-29T00:24:17;24.73;;;22.23;;
68212;SDS011;55035;47.792;8.724;2023-12-29T00:26:45;24.45;;;21.95;;
68212;SDS011;55035;47.792;8.724;2023-12-29T00:29:13;24.77;;;22.20;;
68212;SDS011;55035;47.792;8.724;2023-12-29T00:31:40;37.35;;;30.60;;
68212;SDS011;55035;47.792;8.724;2023-12-29T00:34:07;28.35;;;25.45;;
68212;SDS011;55035;47.792;8.724;2023-12-29T00:36:33;24.67;;;22.08;;
68212;SDS011;55035;47.792;8.724;2023-12-29T00:39:00;24.98;;;22.38;;
68212;SDS011;55035;47.792;8.724;2023-12-29T00:41:27;27.02;;;24.23;;
68212;SDS011;55035;47.792;8.724;2023-12-29T00:43:55;27.20;;;24.40;;
68212;SDS011;55035;47.792;8.724;2023-12-29T00:46:21;28.55;;;25.65;;
68212;SDS011;55035;47.792;8.724;2023-12-29T00:48:48;29.73;;;26.70;;
68212;SDS011;55035;47.792;8.724;2023-12-29T00:51:15;28.33;;;25.33;;
68212;SDS011;55035;47.792;8.724;2023-12-29T00:53:42;29.83;;;26.63;;
68212;SDS011;55035;47.792;8.724;2023-12-29T00:56:12;26.63;;;23.90;;
68212;SDS011;55035;47.792;8.724;2023-12-29T00:58:38;26.85;;;24.08;;
68212;SDS011;55035;47.792;8.724;2023-12-29T01:01:07;28.98;;;25.98;;
68212;SDS011;55035;47.792;8.724;2023-12-29T01:03:36;26.42;;;23.80;;
68212;SDS011;55035;47.792;8.724;2023-12-29T01:06:03;28.10;;;25.20;;
68212;SDS011;55035;47.792;8.724;2023-12-29T01:08:30;29.53;;;26.63;;
68212;SDS011;55035;47.792;8.724;2023-12-29T01:10:56;27.98;;;24.98;;
68212;SDS011;55035;47.792;8.724;2023-12-29T01:13:23;29.85;;;26.85;;
68212;SDS011;55035;47.792;8.724;2023-12-29T01:15:50;28.45;;;25.52;;
68212;SDS011;55035;47.792;8.724;2023-12-29T01:18:18;30.02;;;27.17;;
68212;SDS011;55035;47.792;8.724;2023-12-29T01:20:45;26.58;;;23.88;;
68212;SDS011;55035;47.792;8.724;2023-12-29T01:23:11;28.80;;;26.00;;
68212;SDS011;55035;47.792;8.724;2023-12-29T01:25:38;28.00;;;25.30;;
68212;SDS011;55035;47.792;8.724;2023-12-29T01:28:04;29.15;;;26.20;;
68212;SDS011;55035;47.792;8.724;2023-12-29T01:30:31;32.67;;;29.17;;
68212;SDS011;55035;47.792;8.724;2023-12-29T01:32:58;32.05;;;28.75;;
68212;SDS011;55035;47.792;8.724;2023-12-29T01:35:26;31.98;;;28.70;;
68212;SDS011;55035;47.792;8.724;2023-12-29T01:37:53;30.48;;;27.42;;
68212;SDS011;55035;47.792;8.724;2023-12-29T01:40:21;31.63;;;28.30;;
68212;SDS011;55035;47.792;8.724;2023-12-29T01:42:47;30.90;;;27.73;;
68212;SDS011;55035;47.792;8.724;2023-12-29T01:45:19;31.77;;;28.48;;
68212;SDS011;55035;47.792;8.724;2023-12-29T01:47:46;31.55;;;28.25;;
68212;SDS011;55035;47.792;8.724;2023-12-29T01:50:13;30.00;;;27.00;;
68212;SDS011;55035;47.792;8.724;2023-12-29T01:52:41;29.80;;;26.80;;
68212;SDS011;55035;47.792;8.724;2023-12-29T01:55:10;33.25;;;29.92;;
68212;SDS011;55035;47.792;8.724;2023-12-29T01:57:38;31.02;;;27.83;;
68212;SDS011;55035;47.792;8.724;2023-12-29T02:00:05;32.03;;;28.92;;
68212;SDS011;55035;47.792;8.724;2023-12-29T02:02:37;28.17;;;25.23;;
68212;SDS011;55035;47.792;8.724;2023-12-29T02:05:04;28.93;;;25.93;;
68212;SDS011;55035;47.792;8.724;2023-12-29T02:07:31;29.42;;;26.42;;
68212;SDS011;55035;47.792;8.724;2023-12-29T02:09:59;29.45;;;26.45;;
68212;SDS011;55035;47.792;8.724;2023-12-29T02:12:28;29.08;;;26.17;;
68212;SDS011;55035;47.792;8.724;2023-12-29T02:14:55;29.50;;;26.52;;
68212;SDS011;55035;47.792;8.724;2023-12-29T02:17:22;27.27;;;24.43;;
68212;SDS011;55035;47.792;8.724;2023-12-29T02:19:51;28.70;;;25.70;;
68212;SDS011;55035;47.792;8.724;2023-12-29T02:22:18;28.65;;;25.85;;
68212;SDS011;55035;47.792;8.724;2023-12-29T02:24:46;26.88;;;24.17;;
68212;SDS011;55035;47.792;8.724;2023-12-29T02:27:18;28.33;;;25.55;;
68212;SDS011;55035;47.792;8.724;2023-12-29T02:29:48;28.30;;;25.48;;
68212;SDS011;55035;47.792;8.724;2023-12-29T02:32:19;30.53;;;27.43;;
68212;SDS011;55035;47.792;8.724;2023-12-29T02:34:48;27.60;;;24.57;;
68212;SDS011;55035;47.792;8.724;2023-12-29T02:37:16;27.50;;;24.77;;
68212;SDS011;55035;47.792;8.724;2023-12-29T02:39:45;27.05;;;24.40;;
68212;SDS011;55035;47.792;8.724;2023-12-29T02:42:12;27.00;;;24.30;;
68212;SDS011;55035;47.792;8.724;2023-12-29T02:44:39;27.10;;;24.50;;
68212;SDS011;55035;47.792;8.724;2023-12-29T02:47:06;25.58;;;22.98;;
68212;SDS011;55035;47.792;8.724;2023-12-29T02:49:33;25.85;;;23.27;;
68212;SDS011;55035;47.792;8.724;2023-12-29T02:51:59;24.85;;;22.40;;
68212;SDS011;55035;47.792;8.724;2023-12-29T02:54:26;26.08;;;23.42;;
68212;SDS011;55035;47.792;8.724;2023-12-29T02:56:56;26.52;;;23.92;;
68212;SDS011;55035;47.792;8.724;2023-12-29T02:59:22;25.73;;;23.13;;
68212;SDS011;55035;47.792;8.724;2023-12-29T03:01:49;30.52;;;27.52;;
68212;SDS011;55035;47.792;8.724;2023-12-29T03:04:16;29.00;;;26.20;;
68212;SDS011;55035;47.792;8.724;2023-12-29T03:06:42;25.88;;;23.35;;
68212;SDS011;55035;47.792;8.724;2023-12-29T03:09:09;27.02;;;24.42;;
68212;SDS011;55035;47.792;8.724;2023-12-29T03:11:36;25.38;;;22.88;;
68212;SDS011;55035;47.792;8.724;2023-12-29T03:14:04;24.55;;;22.15;;
68212;SDS011;55035;47.792;8.724;2023-12-29T03:16:30;26.48;;;23.98;;
68212;SDS011;55035;47.792;8.724;2023-12-29T03:18:57;26.05;;;23.45;;
68212;SDS011;55035;47.792;8.724;2023-12-29T03:21:23;26.17;;;23.58;;
68212;SDS011;55035;47.792;8.724;2023-12-29T03:23:50;27.17;;;24.58;;
68212;SDS011;55035;47.792;8.724;2023-12-29T03:26:17;24.95;;;22.55;;
68212;SDS011;55035;47.792;8.724;2023-12-29T03:28:44;26.50;;;23.90;;
68212;SDS011;55035;47.792;8.724;2023-12-29T03:31:12;25.50;;;23.00;;
68212;SDS011;55035;47.792;8.724;2023-12-29T03:33:39;24.60;;;22.27;;
68212;SDS011;55035;47.792;8.724;2023-12-29T03:36:05;25.92;;;23.23;;
68212;SDS011;55035;47.792;8.724;2023-12-29T03:38:33;27.27;;;24.65;;
68212;SDS011;55035;47.792;8.724;2023-12-29T03:41:01;24.92;;;22.50;;
68212;SDS011;55035;47.792;8.724;2023-12-29T03:43:28;23.75;;;21.38;;
68212;SDS011;55035;47.792;8.724;2023-12-29T03:45:54;25.13;;;22.63;;
68212;SDS011;55035;47.792;8.724;2023-12-29T03:48:23;25.13;;;22.63;;
68212;SDS011;55035;47.792;8.724;2023-12-29T03:50:50;23.70;;;21.30;;
68212;SDS011;55035;47.792;8.724;2023-12-29T03:53:17;25.05;;;22.55;;
68212;SDS011;55035;47.792;8.724;2023-12-29T03:55:44;24.50;;;22.00;;
68212;SDS011;55035;47.792;8.724;2023-12-29T03:58:11;23.85;;;21.48;;
68212;SDS011;55035;47.792;8.724;2023-12-29T04:00:38;24.17;;;21.70;;
68212;SDS011;55035;47.792;8.724;2023-12-29T04:03:07;26.20;;;23.60;;
68212;SDS011;55035;47.792;8.724;2023-12-29T04:05:35;26.10;;;23.50;;
68212;SDS011;55035;47.792;8.724;2023-12-29T04:08:01;25.45;;;22.75;;
68212;SDS011;55035;47.792;8.724;2023-12-29T04:10:28;26.58;;;23.88;;
68212;SDS011;55035;47.792;8.724;2023-12-29T04:12:56;26.23;;;23.52;;
68212;SDS011;55035;47.792;8.724;2023-12-29T04:15:23;25.92;;;23.23;;
68212;SDS011;55035;47.792;8.724;2023-12-29T04:17:49;26.77;;;24.08;;
68212;SDS011;55035;47.792;8.724;2023-12-29T04:20:16;28.25;;;25.55;;
68212;SDS011;55035;47.792;8.724;2023-12-29T04:22:44;26.50;;;23.80;;
68212;SDS011;55035;47.792;8.724;2023-12-29T04:25:11;28.88;;;26.05;;
68212;SDS011;55035;47.792;8.724;2023-12-29T04:27:37;27.50;;;24.77;;
68212;SDS011;55035;47.792;8.724;2023-12-29T04:30:05;27.35;;;24.55;;
68212;SDS011;55035;47.792;8.724;2023-12-29T04:32:32;27.20;;;24.48;;
68212;SDS011;55035;47.792;8.724;2023-12-29T04:34:58;27.42;;;24.67;;
68212;SDS011;55035;47.792;8.724;2023-12-29T04:37:25;27.50;;;24.73;;
68212;SDS011;55035;47.792;8.724;2023-12-29T04:39:53;28.88;;;25.98;;
68212;SDS011;55035;47.792;8.724;2023-12-29T04:42:20;27.98;;;25.08;;
68212;SDS011;55035;47.792;8.724;2023-12-29T04:44:46;27.90;;;25.17;;
68212;SDS011;55035;47.792;8.724;2023-12-29T04:47:13;27.03;;;24.40;;
68212;SDS011;55035;47.792;8.724;2023-12-29T04:49:39;27.23;;;24.52;;
68212;SDS011;55035;47.792;8.724;2023-12-29T04:52:06;27.30;;;24.63;;
68212;SDS011;55035;47.792;8.724;2023-12-29T04:54:33;28.27;;;25.38;;
68212;SDS011;55035;47.792;8.724;2023-12-29T04:57:01;28.02;;;25.13;;
68212;SDS011;55035;47.792;8.724;2023-12-29T04:59:28;28.80;;;25.90;;
68212;SDS011;55035;47.792;8.724;2023-12-29T05:01:55;30.20;;;27.08;;
68212;SDS011;55035;47.792;8.724;2023-12-29T05:04:22;28.92;;;25.90;;
68212;SDS011;55035;47.792;8.724;2023-12-29T05:06:48;29.17;;;25.95;;
68212;SDS011;55035;47.792;8.724;2023-12-29T05:09:15;30.20;;;27.10;;
68212;SDS011;55035;47.792;8.724;2023-12-29T05:11:42;30.10;;;26.90;;
68212;SDS011;55035;47.792;8.724;2023-12-29T05:14:10;29.15;;;26.05;;
68212;SDS011;55035;47.792;8.724;2023-12-29T05:16:37;31.17;;;27.90;;
68212;SDS011;55035;47.792;8.724;2023-12-29T05:19:03;31.33;;;28.02;;
68212;SDS011;55035;47.792;8.724;2023-12-29T05:21:30;30.57;;;27.30;;
68212;SDS011;55035;47.792;8.724;2023-12-29T05:23:57;29.58;;;26.38;;
68212;SDS011;55035;47.792;8.724;2023-12-29T05:26:23;30.10;;;26.73;;
68212;SDS011;55035;47.792;8.724;2023-12-29T05:28:50;30.08;;;27.05;;
68212;SDS011;55035;47.792;8.724;2023-12-29T05:31:18;28.50;;;25.50;;
68212;SDS011;55035;47.792;8.724;2023-12-29T05:33:44;30.10;;;26.90;;
68212;SDS011;55035;47.792;8.724;2023-12-29T05:36:11;29.27;;;26.23;;
68212;SDS011;55035;47.792;8.724;2023-12-29T05:38:38;28.57;;;25.67;;
68212;SDS011;55035;47.792;8.724;2023-12-29T05:41:06;28.00;;;25.10;;
68212;SDS011;55035;47.792;8.724;2023-12-29T05:43:33;28.23;;;25.35;;
68212;SDS011;55035;47.792;8.724;2023-12-29T05:46:00;28.23;;;25.17;;
68212;SDS011;55035;47.792;8.724;2023-12-29T05:48:28;29.13;;;26.02;;
68212;SDS011;55035;47.792;8.724;2023-12-29T05:50:54;29.00;;;26.10;;
68212;SDS011;55035;47.792;8.724;2023-12-29T05:53:21;27.85;;;25.05;;
68212;SDS011;55035;47.792;8.724;2023-12-29T05:55:48;29.35;;;26.25;;
68212;SDS011;55035;47.792;8.724;2023-12-29T05:58:15;28.67;;;25.87;;
68212;SDS011;55035;47.792;8.724;2023-12-29T06:00:44;30.02;;;27.02;;
68212;SDS011;55035;47.792;8.724;2023-12-29T06:03:10;30.40;;;27.30;;
68212;SDS011;55035;47.792;8.724;2023-12-29T06:05:39;28.73;;;25.83;;
68212;SDS011;55035;47.792;8.724;2023-12-29T06:08:06;28.95;;;26.00;;
68212;SDS011;55035;47.792;8.724;2023-12-29T06:10:33;28.90;;;26.00;;
68212;SDS011;55035;47.792;8.724;2023-12-29T06:13:01;30.13;;;27.05;;
68212;SDS011;55035;47.792;8.724;2023-12-29T06:15:28;30.73;;;27.63;;
68212;SDS011;55035;47.792;8.724;2023-12-29T06:17:54;28.15;;;25.10;;
68212;SDS011;55035;47.792;8.724;2023-12-29T06:20:21;29.27;;;26.27;;
68212;SDS011;55035;47.792;8.724;2023-12-29T06:22:49;28.70;;;25.73;;
68212;SDS011;55035;47.792;8.724;2023-12-29T06:25:16;29.05;;;26.05;;
68212;SDS011;55035;47.792;8.724;2023-12-29T06:27:43;30.85;;;27.67;;
68212;SDS011;55035;47.792;8.724;2023-12-29T06:30:10;30.27;;;27.08;;
68212;SDS011;55035;47.792;8.724;2023-12-29T06:32:37;29.33;;;26.25;;
68212;SDS011;55035;47.792;8.724;2023-12-29T06:35:05;30.77;;;27.50;;
68212;SDS011;55035;47.792;8.724;2023-12-29T06:37:32;30.05;;;26.95;;
68212;SDS011;55035;47.792;8.724;2023-12-29T06:40:00;29.58;;;26.38;;
68212;SDS011;55035;47.792;8.724;2023-12-29T06:42:27;30.33;;;27.20;;
68212;SDS011;55035;47.792;8.724;2023-12-29T06:44:54;30.30;;;27.00;;
68212;SDS011;55035;47.792;8.724;2023-12-29T06:47:20;28.90;;;25.90;;
68212;SDS011;55035;47.792;8.724;2023-12-29T06:49:47;30.65;;;27.33;;
68212;SDS011;55035;47.792;8.724;2023-12-29T06:52:14;30.75;;;27.42;;
68212;SDS011;55035;47.792;8.724;2023-12-29T06:54:41;32.28;;;28.83;;
68212;SDS011;55035;47.792;8.724;2023-12-29T06:57:09;32.15;;;28.25;;
68212;SDS011;55035;47.792;8.724;2023-12-29T06:59:39;32.40;;;28.27;;
68212;SDS011;55035;47.792;8.724;2023-12-29T07:02:06;32.63;;;29.13;;
68212;SDS011;55035;47.792;8.724;2023-12-29T07:04:33;31.92;;;28.52;;
68212;SDS011;55035;47.792;8.724;2023-12-29T07:07:00;31.13;;;27.83;;
68212;SDS011;55035;47.792;8.724;2023-12-29T07:09:27;32.22;;;28.75;;
68212;SDS011;55035;47.792;8.724;2023-12-29T07:11:53;30.92;;;27.50;;
68212;SDS011;55035;47.792;8.724;2023-12-29T07:14:21;32.97;;;29.30;;
68212;SDS011;55035;47.792;8.724;2023-12-29T07:16:48;33.65;;;29.90;;
68212;SDS011;55035;47.792;8.724;2023-12-29T07:19:14;32.65;;;28.83;;
68212;SDS011;55035;47.792;8.724;2023-12-29T07:21:41;31.52;;;28.15;;
68212;SDS011;55035;47.792;8.724;2023-12-29T07:24:08;32.60;;;28.95;;
68212;SDS011;55035;47.792;8.724;2023-12-29T07:26:35;31.00;;;27.67;;
68212;SDS011;55035;47.792;8.724;2023-12-29T07:29:01;33.33;;;29.08;;
68212;SDS011;55035;47.792;8.724;2023-12-29T07:31:36;31.50;;;28.05;;
68212;SDS011;55035;47.792;8.724;2023-12-29T07:34:04;34.08;;;30.48;;
68212;SDS011;55035;47.792;8.724;2023-12-29T07:36:31;33.72;;;30.10;;
68212;SDS011;55035;47.792;8.724;2023-12-29T07:38:58;31.63;;;28.23;;
68212;SDS011;55035;47.792;8.724;2023-12-29T07:41:25;32.75;;;28.83;;
68212;SDS011;55035;47.792;8.724;2023-12-29T07:43:52;32.78;;;29.25;;
68212;SDS011;55035;47.792;8.724;2023-12-29T07:46:23;33.75;;;30.13;;
68212;SDS011;55035;47.792;8.724;2023-12-29T07:48:51;35.15;;;31.40;;
68212;SDS011;55035;47.792;8.724;2023-12-29T07:51:18;32.80;;;29.20;;
68212;SDS011;55035;47.792;8.724;2023-12-29T07:53:45;33.60;;;30.10;;
68212;SDS011;55035;47.792;8.724;2023-12-29T07:56:11;31.88;;;28.58;;
68212;SDS011;55035;47.792;8.724;2023-12-29T07:58:38;32.50;;;29.10;;
68212;SDS011;55035;47.792;8.724;2023-12-29T08:01:05;32.75;;;29.45;;
68212;SDS011;55035;47.792;8.724;2023-12-29T08:03:39;31.30;;;28.00;;
68212;SDS011;55035;47.792;8.724;2023-12-29T08:06:07;32.00;;;28.70;;
68212;SDS011;55035;47.792;8.724;2023-12-29T08:08:34;32.30;;;28.85;;
68212;SDS011;55035;47.792;8.724;2023-12-29T08:11:00;29.77;;;26.55;;
68212;SDS011;55035;47.792;8.724;2023-12-29T08:13:27;29.08;;;25.98;;
68212;SDS011;55035;47.792;8.724;2023-12-29T08:15:54;31.55;;;28.23;;
68212;SDS011;55035;47.792;8.724;2023-12-29T08:18:20;31.67;;;28.27;;
68212;SDS011;55035;47.792;8.724;2023-12-29T08:20:47;33.60;;;30.07;;
68212;SDS011;55035;47.792;8.724;2023-12-29T08:23:15;32.15;;;28.67;;
68212;SDS011;55035;47.792;8.724;2023-12-29T08:25:42;30.98;;;27.67;;
68212;SDS011;55035;47.792;8.724;2023-12-29T08:28:08;30.45;;;27.15;;
68212;SDS011;55035;47.792;8.724;2023-12-29T08:30:35;30.65;;;27.48;;
68212;SDS011;55035;47.792;8.724;2023-12-29T08:33:02;29.87;;;26.73;;
68212;SDS011;55035;47.792;8.724;2023-12-29T08:35:29;29.63;;;26.48;;
68212;SDS011;55035;47.792;8.724;2023-12-29T08:37:56;28.90;;;25.90;;
68212;SDS011;55035;47.792;8.724;2023-12-29T08:40:23;30.10;;;27.00;;
68212;SDS011;55035;47.792;8.724;2023-12-29T08:42:50;28.27;;;25.38;;
68212;SDS011;55035;47.792;8.724;2023-12-29T08:45:17;31.27;;;28.07;;
68212;SDS011;55035;47.792;8.724;2023-12-29T08:47:43;29.42;;;26.42;;
68212;SDS011;55035;47.792;8.724;2023-12-29T08:50:10;29.60;;;26.60;;
68212;SDS011;55035;47.792;8.724;2023-12-29T08:52:37;25.80;;;23.10;;
68212;SDS011;55035;47.792;8.724;2023-12-29T08:55:03;27.38;;;24.52;;
68212;SDS011;55035;47.792;8.724;2023-12-29T08:57:32;27.90;;;24.90;;
68212;SDS011;55035;47.792;8.724;2023-12-29T08:59:59;27.88;;;25.02;;
68212;SDS011;55035;47.792;8.724;2023-12-29T09:02:26;26.73;;;23.90;;
68212;SDS011;55035;47.792;8.724;2023-12-29T09:04:53;26.50;;;23.70;;
68212;SDS011;55035;47.792;8.724;2023-12-29T09:07:19;25.13;;;22.45;;
68212;SDS011;55035;47.792;8.724;2023-12-29T09:09:52;26.10;;;23.27;;
68212;SDS011;55035;47.792;8.724;2023-12-29T09:12:19;25.38;;;22.70;;
68212;SDS011;55035;47.792;8.724;2023-12-29T09:14:47;23.57;;;20.60;;
68212;SDS011;55035;47.792;8.724;2023-12-29T09:17:13;25.48;;;22.88;;
68212;SDS011;55035;47.792;8.724;2023-12-29T09:19:40;23.00;;;20.52;;
68212;SDS011;55035;47.792;8.724;2023-12-29T09:22:07;22.52;;;20.13;;
68212;SDS011;55035;47.792;8.724;2023-12-29T09:24:33;25.83;;;23.13;;
68212;SDS011;55035;47.792;8.724;2023-12-29T09:27:00;24.05;;;21.50;;
68212;SDS011;55035;47.792;8.724;2023-12-29T09:29:26;22.63;;;20.15;;
68212;SDS011;55035;47.792;8.724;2023-12-29T09:31:54;23.15;;;20.75;;
68212;SDS011;55035;47.792;8.724;2023-12-29T09:34:21;22.55;;;20.25;;
68212;SDS011;55035;47.792;8.724;2023-12-29T09:36:48;22.98;;;20.67;;
68212;SDS011;55035;47.792;8.724;2023-12-29T09:39:14;20.03;;;17.50;;
68212;SDS011;55035;47.792;8.724;2023-12-29T09:41:42;19.88;;;16.75;;
68212;SDS011;55035;47.792;8.724;2023-12-29T09:44:09;18.55;;;14.35;;
68212;SDS011;55035;47.792;8.724;2023-12-29T09:46:39;16.35;;;11.10;;
68212;SDS011;55035;47.792;8.724;2023-12-29T09:49:08;16.85;;;11.27;;
68212;SDS011;55035;47.792;8.724;2023-12-29T09:51:35;15.63;;;9.57;;
68212;SDS011;55035;47.792;8.724;2023-12-29T09:54:02;16.15;;;9.90;;
68212;SDS011;55035;47.792;8.724;2023-12-29T09:56:30;17.42;;;10.88;;
68212;SDS011;55035;47.792;8.724;2023-12-29T09:59:01;15.27;;;9.30;;
68212;SDS011;55035;47.792;8.724;2023-12-29T10:01:28;14.95;;;8.15;;
68212;SDS011;55035;47.792;8.724;2023-12-29T10:03:56;14.30;;;7.43;;
68212;SDS011;55035;47.792;8.724;2023-12-29T10:06:24;13.17;;;7.07;;
68212;SDS011;55035;47.792;8.724;2023-12-29T10:08:51;13.27;;;7.43;;
68212;SDS011;55035;47.792;8.724;2023-12-29T10:11:20;11.13;;;6.38;;
68212;SDS011;55035;47.792;8.724;2023-12-29T10:13:49;11.40;;;6.40;;
68212;SDS011;55035;47.792;8.724;2023-12-29T10:16:18;12.97;;;7.07;;
68212;SDS011;55035;47.792;8.724;2023-12-29T10:18:49;12.52;;;6.60;;
68212;SDS011;55035;47.792;8.724;2023-12-29T10:21:26;12.02;;;6.55;;
68212;SDS011;55035;47.792;8.724;2023-12-29T10:23:54;12.05;;;6.30;;
68212;SDS011;55035;47.792;8.724;2023-12-29T10:26:23;12.32;;;6.80;;
68212;SDS011;55035;47.792;8.724;2023-12-29T10:28:50;12.05;;;6.60;;
68212;SDS011;55035;47.792;8.724;2023-12-29T10:31:17;11.70;;;6.80;;
68212;SDS011;55035;47.792;8.724;2023-12-29T10:33:43;13.98;;;6.95;;
68212;SDS011;55035;47.792;8.724;2023-12-29T10:36:15;13.10;;;7.28;;
68212;SDS011;55035;47.792;8.724;2023-12-29T10:38:43;12.85;;;7.05;;
68212;SDS011;55035;47.792;8.724;2023-12-29T10:41:11;13.20;;;7.37;;
68212;SDS011;55035;47.792;8.724;2023-12-29T10:43:37;13.57;;;7.00;;
68212;SDS011;55035;47.792;8.724;2023-12-29T10:46:05;12.68;;;7.38;;
68212;SDS011;55035;47.792;8.724;2023-12-29T10:48:32;13.27;;;7.30;;
68212;SDS011;55035;47.792;8.724;2023-12-29T10:50:58;12.00;;;6.72;;
68212;SDS011;55035;47.792;8.724;2023-12-29T10:53:26;12.95;;;6.80;;
68212;SDS011;55035;47.792;8.724;2023-12-29T10:55:55;13.43;;;7.10;;
68212;SDS011;55035;47.792;8.724;2023-12-29T10:58:23;12.43;;;6.97;;
68212;SDS011;55035;47.792;8.724;2023-12-29T11:00:52;12.30;;;7.20;;
68212;SDS011;55035;47.792;8.724;2023-12-29T11:03:19;12.55;;;6.90;;
68212;SDS011;55035;47.792;8.724;2023-12-29T11:05:46;11.43;;;6.40;;
68212;SDS011;55035;47.792;8.724;2023-12-29T11:08:16;11.70;;;6.55;;
68212;SDS011;55035;47.792;8.724;2023-12-29T11:10:43;11.48;;;6.50;;
68212;SDS011;55035;47.792;8.724;2023-12-29T11:13:11;12.52;;;6.45;;
68212;SDS011;55035;47.792;8.724;2023-12-29T11:15:39;12.53;;;6.77;;
68212;SDS011;55035;47.792;8.724;2023-12-29T11:18:08;11.52;;;6.35;;
68212;SDS011;55035;47.792;8.724;2023-12-29T11:20:35;11.82;;;6.78;;
68212;SDS011;55035;47.792;8.724;2023-12-29T11:23:02;11.88;;;6.50;;
68212;SDS011;55035;47.792;8.724;2023-12-29T11:25:29;12.57;;;6.75;;
68212;SDS011;55035;47.792;8.724;2023-12-29T11:27:56;11.90;;;6.60;;
68212;SDS011;55035;47.792;8.724;2023-12-29T11:30:25;12.37;;;6.63;;
68212;SDS011;55035;47.792;8.724;2023-12-29T11:32:53;12.03;;;6.53;;
68212;SDS011;55035;47.792;8.724;2023-12-29T11:35:21;12.50;;;6.60;;
68212;SDS011;55035;47.792;8.724;2023-12-29T11:40:42;12.25;;;6.80;;
68212;SDS011;55035;47.792;8.724;2023-12-29T11:43:12;11.80;;;6.70;;
68212;SDS011;55035;47.792;8.724;2023-12-29T11:45:43;11.82;;;6.65;;
68212;SDS011;55035;47.792;8.724;2023-12-29T11:48:10;11.40;;;6.23;;
68212;SDS011;55035;47.792;8.724;2023-12-29T11:50:37;11.95;;;6.53;;
68212;SDS011;55035;47.792;8.724;2023-12-29T11:53:06;12.30;;;6.13;;
68212;SDS011;55035;47.792;8.724;2023-12-29T11:55:34;11.57;;;6.47;;
68212;SDS011;55035;47.792;8.724;2023-12-29T11:58:01;12.63;;;6.32;;
68212;SDS011;55035;47.792;8.724;2023-12-29T12:00:46;11.80;;;6.32;;
68212;SDS011;55035;47.792;8.724;2023-12-29T12:03:14;11.55;;;6.10;;
68212;SDS011;55035;47.792;8.724;2023-12-29T12:05:44;12.00;;;6.15;;
68212;SDS011;55035;47.792;8.724;2023-12-29T12:08:11;10.10;;;5.63;;
68212;SDS011;55035;47.792;8.724;2023-12-29T12:10:52;11.70;;;6.10;;
68212;SDS011;55035;47.792;8.724;2023-12-29T12:16:02;10.73;;;5.70;;
68212;SDS011;55035;47.792;8.724;2023-12-29T12:18:29;10.87;;;5.63;;
68212;SDS011;55035;47.792;8.724;2023-12-29T12:20:57;11.23;;;5.78;;
68212;SDS011;55035;47.792;8.724;2023-12-29T12:23:24;11.35;;;5.88;;
68212;SDS011;55035;47.792;8.724;2023-12-29T12:25:51;9.67;;;5.47;;
68212;SDS011;55035;47.792;8.724;2023-12-29T12:28:25;10.52;;;5.30;;
68212;SDS011;55035;47.792;8.724;2023-12-29T12:30:51;10.32;;;5.20;;
68212;SDS011;55035;47.792;8.724;2023-12-29T12:33:20;10.33;;;4.97;;
68212;SDS011;55035;47.792;8.724;2023-12-29T12:35:57;9.33;;;4.60;;
68212;SDS011;55035;47.792;8.724;2023-12-29T12:38:24;9.30;;;4.87;;
68212;SDS011;55035;47.792;8.724;2023-12-29T12:40:52;9.73;;;4.88;;
68212;SDS011;55035;47.792;8.724;2023-12-29T12:43:19;9.48;;;4.95;;
68212;SDS011;55035;47.792;8.724;2023-12-29T12:45:47;9.50;;;4.67;;
68212;SDS011;55035;47.792;8.724;2023-12-29T12:48:14;9.40;;;4.63;;
68212;SDS011;55035;47.792;8.724;2023-12-29T12:50:47;9.20;;;4.68;;
68212;SDS011;55035;47.792;8.724;2023-12-29T12:53:14;9.37;;;4.40;;
68212;SDS011;55035;47.792;8.724;2023-12-29T12:55:46;8.47;;;4.40;;
68212;SDS011;55035;47.792;8.724;2023-12-29T12:58:13;8.82;;;3.90;;
68212;SDS011;55035;47.792;8.724;2023-12-29T13:00:40;9.57;;;4.00;;
68212;SDS011;55035;47.792;8.724;2023-12-29T13:03:07;8.43;;;3.97;;
68212;SDS011;55035;47.792;8.724;2023-12-29T13:05:35;8.88;;;4.18;;
68212;SDS011;55035;47.792;8.724;2023-12-29T13:08:03;8.85;;;4.10;;
68212;SDS011;55035;47.792;8.724;2023-12-29T13:10:30;8.82;;;4.43;;
68212;SDS011;55035;47.792;8.724;2023-12-29T13:12:58;9.63;;;4.70;;
68212;SDS011;55035;47.792;8.724;2023-12-29T13:15:25;9.43;;;4.47;;
68212;SDS011;55035;47.792;8.724;2023-12-29T13:17:51;8.80;;;4.28;;
68212;SDS011;55035;47.792;8.724;2023-12-29T13:20:18;9.60;;;4.38;;
68212;SDS011;55035;47.792;8.724;2023-12-29T13:22:46;8.60;;;4.20;;
68212;SDS011;55035;47.792;8.724;2023-12-29T13:25:15;9.38;;;4.45;;
68212;SDS011;55035;47.792;8.724;2023-12-29T13:27:47;9.50;;;4.30;;
68212;SDS011;55035;47.792;8.724;2023-12-29T13:30:14;9.23;;;4.27;;
68212;SDS011;55035;47.792;8.724;2023-12-29T13:32:42;9.43;;;4.32;;
68212;SDS011;55035;47.792;8.724;2023-12-29T13:35:11;8.82;;;4.10;;
68212;SDS011;55035;47.792;8.724;2023-12-29T13:38:07;8.90;;;4.30;;
68212;SDS011;55035;47.792;8.724;2023-12-29T13:40:38;8.80;;;4.10;;
68212;SDS011;55035;47.792;8.724;2023-12-29T13:43:08;8.88;;;4.00;;
68212;SDS011;55035;47.792;8.724;2023-12-29T13:45:35;8.10;;;3.90;;
68212;SDS011;55035;47.792;8.724;2023-12-29T13:48:03;8.32;;;3.92;;
68212;SDS011;55035;47.792;8.724;2023-12-29T13:50:32;9.02;;;4.03;;
68212;SDS011;55035;47.792;8.724;2023-12-29T13:52:59;8.73;;;4.10;;
68212;SDS011;55035;47.792;8.724;2023-12-29T13:55:26;8.32;;;3.95;;
68212;SDS011;55035;47.792;8.724;2023-12-29T13:57:54;8.83;;;3.90;;
68212;SDS011;55035;47.792;8.724;2023-12-29T14:00:25;8.02;;;3.80;;
68212;SDS011;55035;47.792;8.724;2023-12-29T14:02:57;9.73;;;4.00;;
68212;SDS011;55035;47.792;8.724;2023-12-29T14:05:27;8.60;;;3.92;;
68212;SDS011;55035;47.792;8.724;2023-12-29T14:07:55;8.73;;;4.18;;
68212;SDS011;55035;47.792;8.724;2023-12-29T14:10:28;7.85;;;3.70;;
68212;SDS011;55035;47.792;8.724;2023-12-29T14:12:56;8.10;;;3.70;;
68212;SDS011;55035;47.792;8.724;2023-12-29T14:15:33;8.87;;;3.77;;
68212;SDS011;55035;47.792;8.724;2023-12-29T14:18:01;8.10;;;3.50;;
68212;SDS011;55035;47.792;8.724;2023-12-29T14:20:40;8.55;;;3.70;;
68212;SDS011;55035;47.792;8.724;2023-12-29T14:23:07;8.05;;;3.47;;
68212;SDS011;55035;47.792;8.724;2023-12-29T14:25:35;7.45;;;3.30;;
68212;SDS011;55035;47.792;8.724;2023-12-29T14:28:04;7.68;;;3.25;;
68212;SDS011;55035;47.792;8.724;2023-12-29T14:30:40;8.05;;;3.53;;
68212;SDS011;55035;47.792;8.724;2023-12-29T14:33:06;7.33;;;3.20;;
68212;SDS011;55035;47.792;8.724;2023-12-29T14:35:33;7.45;;;3.20;;
68212;SDS011;55035;47.792;8.724;2023-12-29T14:38:00;8.02;;;3.22;;